Warren, New Jersey
Current Conditions -  °F | °C
As of 4:53 AM on Friday 21 Nov 2014 (Local Time) from KSMQ Reporting Station
Clear Clear  
Wind Chill: 19°   Ceiling: Unl
Heat Index: 27°   Visibility: 10mi
Dew Point:   Wind: 7mph
Humidity: 47%   Direction: 280°W
Pressure: 30.14"   Gusts: NA
Location:  40.63°N, 74.51°W
Report Text: KSMQ 210953Z AUTO 28006KT 10SM CLR M03/M13 A3014 RMK AO2 SLP208 T10281128
Loading
Personal Weather Stations






























Interactive Weather Map New forecast layout! Learn more

10-Day Weather Forecast

Advertisements
Track Severe Weather on mobile